Logan, Ohio
Current Conditions -  °F | °C
As of 1:53 AM on Sunday 26 Oct 2014 (Local Time) from KLHQ Reporting Station
Clear Clear  
Wind Chill: 42°   Ceiling: Unl
Heat Index: 42°   Visibility: 8mi
Dew Point: 40°   Wind: 0mph
Humidity: 92%   Direction: NA
Pressure: 29.89"   Gusts: NA
Location:  39.54°N, 82.41°W
Report Text: KLHQ 260553Z AUTO 00000KT 8SM CLR 06/04 A2989 RMK AO2 SLP121 T00560044 10183 20056 53004
Loading
Personal Weather Stations






























Interactive Weather Map
Tropical Storm Tracking
New forecast layout! Learn more

10-Day Weather Forecast

Advertisements
Track Severe Weather on mobile